Time;durP1;ratioP1;P1;durP2;ratioP2;P2;SDS_P1;SDS_P2;PMS_P1;PMS_P2;Temp;Humidity;BMP_temperature;BMP_pressure;BME280_temperature;BME280_humidity;BME280_pressure;Samples;Min_cycle;Max_cycle;Signal;HPM_P1;HPM_P2
2022/02/08 00:01:31;;;;;;;7.38;3.20;;;25.70;74.60;;;;;;5048006;28;20373;-69
2022/02/08 00:03:57;;;;;;;8.23;4.30;;;25.60;74.50;;;;;;5047469;28;20381;-69
2022/02/08 00:07:05;;;;;;;13.45;4.53;;;25.60;74.50;;;;;;5044134;28;20473;-69
2022/02/08 00:10:11;;;;;;;9.07;4.00;;;25.60;74.70;;;;;;5049718;28;20032;-69
2022/02/08 00:12:57;;;;;;;;;;;25.60;75.40;;;;;;5046059;28;20029;-70
2022/02/08 00:16:03;;;;;;;8.82;3.30;;;25.60;74.80;;;;;;5044702;28;19909;-70
2022/02/08 00:18:49;;;;;;;;;;;25.60;74.80;;;;;;5048600;28;20480;-70
2022/02/08 00:21:55;;;;;;;6.53;2.75;;;25.60;74.90;;;;;;5046841;28;19969;-70
2022/02/08 00:25:17;;;;;;;11.30;3.92;;;25.60;74.90;;;;;;5045181;28;20063;-69
2022/02/08 00:28:02;;;;;;;;;;;25.60;75.00;;;;;;5046814;28;20021;-70
2022/02/08 00:31:08;;;;;;;8.88;3.92;;;25.60;75.00;;;;;;5048257;28;19916;-69
2022/02/08 00:33:54;;;;;;;;;;;25.60;75.00;;;;;;5047098;28;20423;-70
2022/02/08 00:36:22;;;;;;;7.78;2.97;;;25.60;75.10;;;;;;5043438;28;19967;-70
2022/02/08 00:38:50;;;;;;;6.97;2.67;;;25.60;75.20;;;;;;5048565;28;20052;-69
2022/02/08 00:41:16;;;;;;;4.55;2.45;;;25.50;75.10;;;;;;5046002;28;20112;-69
2022/02/08 00:43:55;;;;;;;6.45;3.15;;;25.50;75.20;;;;;;5048213;28;21146;-70
2022/02/08 00:46:32;;;;;;;7.43;3.50;;;25.50;75.20;;;;;;5045567;28;20064;-70
2022/02/08 00:49:01;;;;;;;7.97;2.60;;;25.50;75.20;;;;;;5048543;28;20060;-69
2022/02/08 00:51:37;;;;;;;6.07;3.38;;;25.50;75.20;;;;;;5048581;28;20456;-69
2022/02/08 00:54:04;;;;;;;7.35;2.63;;;25.50;75.20;;;;;;5047827;28;20020;-70
2022/02/08 00:56:30;;;;;;;7.30;3.00;;;25.50;75.30;;;;;;5045763;28;20021;-69
2022/02/08 00:58:57;;;;;;;11.55;3.65;;;25.50;75.40;;;;;;5045825;28;20036;-70
2022/02/08 01:01:23;;;;;;;6.38;2.63;;;25.50;75.40;;;;;;5047422;28;20040;-68
2022/02/08 01:03:50;;;;;;;9.38;3.05;;;25.50;75.50;;;;;;5048883;28;20029;-70
2022/02/08 01:06:17;;;;;;;7.65;3.15;;;25.50;75.50;;;;;;5052174;28;20104;-70
2022/02/08 01:08:43;;;;;;;6.03;2.70;;;25.50;75.60;;;;;;5050269;28;20035;-70
2022/02/08 01:11:11;;;;;;;5.43;2.38;;;25.50;75.50;;;;;;5050728;28;20102;-70
2022/02/08 01:13:40;;;;;;;8.00;2.97;;;25.50;75.50;;;;;;5050945;28;20079;-70
2022/02/08 01:16:07;;;;;;;7.03;3.58;;;25.50;75.50;;;;;;5051909;28;20028;-70
2022/02/08 01:18:39;;;;;;;6.25;3.67;;;25.40;75.40;;;;;;5052600;28;20484;-69
2022/02/08 01:21:05;;;;;;;8.45;3.83;;;25.40;75.30;;;;;;5050184;28;20041;-70
2022/02/08 01:23:32;;;;;;;7.32;4.88;;;25.40;75.20;;;;;;5052836;28;20110;-70
2022/02/08 01:26:06;;;;;;;8.38;4.00;;;25.40;75.30;;;;;;5050645;28;20028;-70
2022/02/08 01:31:11;;;;;;;8.55;5.28;;;25.40;75.20;;;;;;5050469;28;20408;-71
2022/02/08 01:34:04;;;;;;;11.57;4.97;;;25.40;75.20;;;;;;5051691;28;20021;-70
2022/02/08 01:37:10;;;;;;;8.50;3.95;;;25.40;75.20;;;;;;5051443;28;20036;-69
2022/02/08 01:47:46;;;;;;;8.63;4.65;;;25.30;75.50;;;;;;5051614;28;20091;-70
2022/02/08 01:50:15;;;;;;;8.68;4.13;;;25.30;75.60;;;;;;5050394;28;20067;-71
2022/02/08 01:52:42;;;;;;;8.18;4.03;;;25.30;75.70;;;;;;5049681;28;20484;-70
2022/02/08 01:55:10;;;;;;;11.55;4.35;;;25.30;75.70;;;;;;5050570;28;20052;-70
2022/02/08 01:57:38;;;;;;;8.05;4.03;;;25.30;75.80;;;;;;5050282;28;20022;-70
2022/02/08 02:00:07;;;;;;;11.18;4.57;;;25.30;75.90;;;;;;5050343;28;20568;-70
2022/02/08 02:02:34;;;;;;;8.02;4.00;;;25.30;75.90;;;;;;5033614;28;20497;-70
2022/02/08 02:05:00;;;;;;;6.18;4.03;;;25.20;75.90;;;;;;5051734;28;20016;-71
2022/02/08 02:07:27;;;;;;;8.45;5.13;;;25.30;76.00;;;;;;5050998;28;20052;-71
2022/02/08 02:09:54;;;;;;;6.32;3.28;;;25.30;76.60;;;;;;5045885;28;20087;-72
2022/02/08 02:12:20;;;;;;;10.82;4.05;;;25.20;75.90;;;;;;5047506;28;20067;-71
2022/02/08 02:14:47;;;;;;;11.48;4.35;;;25.20;76.00;;;;;;5052045;28;20590;-71
2022/02/08 02:17:13;;;;;;;9.32;4.53;;;25.20;75.90;;;;;;5047553;28;20017;-70
2022/02/08 02:19:41;;;;;;;10.20;4.35;;;25.20;75.90;;;;;;5051205;28;20408;-68
2022/02/08 02:22:08;;;;;;;9.05;4.20;;;25.20;75.90;;;;;;5051946;28;20372;-68
2022/02/08 02:24:39;;;;;;;8.82;4.60;;;25.20;75.90;;;;;;5050803;28;20025;-69
2022/02/08 02:27:07;;;;;;;7.05;3.33;;;25.20;75.90;;;;;;5051577;28;20025;-69
2022/02/08 02:29:34;;;;;;;7.55;3.58;;;25.20;75.90;;;;;;5043102;28;20530;-70
2022/02/08 02:32:01;;;;;;;14.93;5.00;;;25.20;75.80;;;;;;5050813;28;20365;-70
2022/02/08 02:34:28;;;;;;;19.13;5.22;;;25.20;75.90;;;;;;5049945;28;20044;-69
2022/02/08 02:36:55;;;;;;;12.90;5.13;;;25.20;76.10;;;;;;5045576;28;20707;-69
2022/02/08 02:39:27;;;;;;;12.48;4.10;;;25.20;76.20;;;;;;5050756;28;20066;-69
2022/02/08 02:41:54;;;;;;;8.02;3.80;;;25.10;76.10;;;;;;5049128;28;20488;-70
2022/02/08 02:44:23;;;;;;;9.23;3.30;;;25.10;76.00;;;;;;5051013;28;20021;-69
2022/02/08 02:46:50;;;;;;;5.47;3.03;;;25.10;75.90;;;;;;5049693;28;20028;-69
2022/02/08 02:49:17;;;;;;;8.88;3.58;;;25.10;75.90;;;;;;5050564;28;20368;-69
2022/02/08 02:51:43;;;;;;;6.40;3.08;;;25.10;75.90;;;;;;5050002;28;20032;-69
2022/02/08 02:54:20;;;;;;;8.18;3.63;;;25.10;75.90;;;;;;5050795;28;20472;-69
2022/02/08 02:56:48;;;;;;;7.43;3.72;;;25.10;75.80;;;;;;5049640;28;20088;-69
2022/02/08 02:59:17;;;;;;;7.82;3.42;;;25.10;75.80;;;;;;5048139;28;20021;-69
2022/02/08 03:04:57;;;;;;;5.70;3.40;;;25.00;75.70;;;;;;5045659;28;20031;-69
2022/02/08 03:18:55;;;;;;;9.30;3.20;;;25.00;75.80;;;;;;5048380;28;20079;-70
2022/02/08 03:21:15;;;;;;;11.32;4.10;;;24.90;75.70;;;;;;5044701;28;20045;-70
2022/02/08 03:23:43;;;;;;;11.35;2.83;;;25.00;75.60;;;;;;5050521;28;20033;-69
2022/02/08 03:26:09;;;;;;;9.73;3.03;;;24.90;75.50;;;;;;5048695;28;20078;-70
2022/02/08 03:28:36;;;;;;;11.32;3.30;;;24.90;75.50;;;;;;5048640;28;20020;-69
2022/02/08 03:31:04;;;;;;;19.00;3.45;;;24.90;75.60;;;;;;5048603;28;20024;-70
2022/02/08 03:33:31;;;;;;;15.43;3.63;;;24.90;75.70;;;;;;5044285;28;20132;-70
2022/02/08 03:35:57;;;;;;;10.30;3.30;;;24.90;75.60;;;;;;5049746;28;20080;-69
2022/02/08 03:38:31;;;;;;;9.75;3.13;;;24.90;75.50;;;;;;5048987;28;20361;-70
2022/02/08 03:40:58;;;;;;;13.13;3.15;;;24.90;75.40;;;;;;5049985;28;20036;-71
2022/02/08 03:44:13;;;;;;;20.60;3.72;;;24.90;75.40;;;;;;5047175;28;20025;-71
2022/02/08 03:47:20;;;;;;;14.13;3.33;;;24.90;75.40;;;;;;5048498;28;20388;-70
2022/02/08 03:50:26;;;;;;;6.95;3.28;;;24.80;75.30;;;;;;5047269;28;20037;-70
2022/02/08 03:53:12;;;;;;;;;;;24.80;75.10;;;;;;5043122;28;20037;-70
2022/02/08 03:55:58;;;;;;;;;;;24.80;75.10;;;;;;5047795;28;19915;-70
2022/02/08 03:58:25;;;;;;;19.52;4.20;;;24.80;74.40;;;;;;5046024;28;20338;-70
2022/02/08 04:01:25;;;;;;;48.03;10.73;;;24.70;75.30;;;;;;5049403;28;20384;-69
2022/02/08 04:03:45;;;;;;;31.02;11.68;;;24.60;75.80;;;;;;5047994;28;20059;-69
2022/02/08 04:06:14;;;;;;;18.33;7.18;;;24.60;76.10;;;;;;5049485;28;20033;-70
2022/02/08 04:08:40;;;;;;;15.95;5.78;;;24.60;76.50;;;;;;5046471;28;20020;-70
2022/02/08 04:11:08;;;;;;;14.35;4.93;;;24.70;76.60;;;;;;5049944;28;20033;-69
2022/02/08 04:13:46;;;;;;;21.13;5.20;;;24.70;76.50;;;;;;5048736;28;20027;-72
2022/02/08 04:16:26;;;;;;;13.82;4.97;;;24.70;76.30;;;;;;5049873;28;20110;-71
2022/02/08 04:19:11;;;;;;;21.05;4.53;;;24.70;76.20;;;;;;5049657;28;20025;-73
2022/02/08 04:35:57;;;;;;;18.83;4.97;;;24.60;75.30;;;;;;5044908;28;20113;-71
2022/02/08 04:39:21;;;;;;;9.27;4.47;;;24.60;75.10;;;;;;5048227;28;20032;-73
2022/02/08 04:41:17;;;;;;;11.20;4.80;;;24.50;75.00;;;;;;5047252;28;20661;-70
2022/02/08 04:43:55;;;;;;;12.30;5.60;;;24.50;75.00;;;;;;5051062;28;20067;-73
2022/02/08 04:46:43;;;;;;;10.07;4.93;;;24.50;74.90;;;;;;5052138;28;20455;-69
2022/02/08 04:49:53;;;;;;;11.80;5.47;;;24.50;74.70;;;;;;5050935;28;20384;-70
2022/02/08 04:53:06;;;;;;;9.15;5.72;;;24.50;74.60;;;;;;5047162;28;20406;-70
2022/02/08 04:56:24;;;;;;;17.77;6.28;;;24.40;74.40;;;;;;5049643;28;20023;-70
2022/02/08 05:49:40;;;;;;;19.75;12.88;;;24.40;74.20;;;;;;5050301;28;20484;-70
2022/02/08 05:52:50;;;;;;;19.52;10.77;;;24.40;74.10;;;;;;5051438;28;20033;-70
2022/02/08 05:55:56;;;;;;;16.15;10.45;;;24.40;73.90;;;;;;5049969;28;20381;-70
2022/02/08 05:58:43;;;;;;;;;;;24.50;73.70;;;;;;5050705;28;20110;-70
2022/02/08 06:01:49;;;;;;;17.55;11.63;;;24.40;73.50;;;;;;5049436;28;19916;-70
2022/02/08 06:04:38;;;;;;;;;;;24.50;73.40;;;;;;5050554;28;20021;-70
2022/02/08 06:07:44;;;;;;;27.23;16.42;;;24.40;73.30;;;;;;5051518;28;20050;-70
2022/02/08 06:10:54;;;;;;;31.58;17.42;;;24.50;73.40;;;;;;5048593;28;20507;-70
2022/02/08 06:14:00;;;;;;;26.98;16.52;;;24.50;73.40;;;;;;5052245;28;20040;-70
2022/02/08 06:16:46;;;;;;;;;;;24.50;73.40;;;;;;5049207;28;20025;-70
2022/02/08 06:19:56;;;;;;;29.45;17.77;;;24.50;73.40;;;;;;5048331;28;19928;-70
2022/02/08 06:23:02;;;;;;;19.40;13.25;;;24.60;73.80;;;;;;5049639;28;20392;-69
2022/02/08 06:26:08;;;;;;;26.20;13.13;;;24.60;74.10;;;;;;5051120;28;20052;-69
2022/02/08 06:29:06;;;;;;;;;;;24.60;74.40;;;;;;5047695;28;20027;-70
2022/02/08 06:32:12;;;;;;;18.08;12.65;;;24.60;74.50;;;;;;5047535;28;19917;-69
2022/02/08 06:35:24;;;;;;;18.48;11.77;;;24.60;74.50;;;;;;5047663;28;20396;-70
2022/02/08 06:38:30;;;;;;;22.42;12.88;;;24.70;74.50;;;;;;5047761;28;20460;-69
2022/02/08 06:41:17;;;;;;;;;;;24.70;74.50;;;;;;5045702;28;20029;-70
2022/02/08 06:44:23;;;;;;;23.70;13.90;;;24.70;74.60;;;;;;5049103;28;19995;-69
2022/02/08 06:47:09;;;;;;;;;;;24.80;74.50;;;;;;5046598;28;20071;-70
2022/02/08 06:50:15;;;;;;;27.05;15.60;;;24.80;74.50;;;;;;5049563;28;20002;-70
2022/02/08 06:53:01;;;;;;;;;;;24.90;74.40;;;;;;5048294;28;20522;-70
2022/02/08 06:56:07;;;;;;;23.67;11.88;;;24.90;74.40;;;;;;5049721;28;19908;-69
2022/02/08 06:59:02;;;;;;;;;;;25.00;74.60;;;;;;5047403;28;20025;-70
2022/02/08 07:02:08;;;;;;;18.08;8.75;;;25.00;74.70;;;;;;5050218;28;19912;-70
2022/02/08 07:04:54;;;;;;;;;;;25.00;74.60;;;;;;5052270;28;20017;-70
2022/02/08 07:08:00;;;;;;;18.75;8.05;;;25.00;74.30;;;;;;5048707;28;19913;-70
2022/02/08 07:10:46;;;;;;;;;;;25.10;74.10;;;;;;5049277;28;20029;-70
2022/02/08 07:13:53;;;;;;;18.05;10.27;;;25.10;73.90;;;;;;5049673;28;19909;-69
2022/02/08 07:16:59;;;;;;;21.38;9.65;;;25.10;73.50;;;;;;5049346;28;20464;-70
2022/02/08 07:19:45;;;;;;;;;;;25.20;73.30;;;;;;5050365;28;20059;-69
2022/02/08 07:22:51;;;;;;;37.83;8.65;;;25.20;73.20;;;;;;5046515;28;20427;-70
2022/02/08 07:25:37;;;;;;;;;;;25.30;73.60;;;;;;5048667;28;20055;-69
2022/02/08 07:28:43;;;;;;;26.45;7.65;;;25.30;73.90;;;;;;5049422;28;19913;-69
2022/02/08 07:31:54;;;;;;;23.60;7.32;;;25.40;74.60;;;;;;5047224;28;20087;-70
2022/02/08 07:35:16;;;;;;;16.85;6.55;;;25.40;73.90;;;;;;5048463;28;20459;-69
2022/02/08 07:38:28;;;;;;;19.48;6.72;;;25.50;73.70;;;;;;5047742;28;20021;-70
2022/02/08 07:41:41;;;;;;;14.85;5.28;;;25.60;73.50;;;;;;5042556;28;20412;-70
2022/02/08 07:44:47;;;;;;;15.15;5.63;;;25.60;73.00;;;;;;5048639;28;20460;-69
2022/02/08 07:47:33;;;;;;;;;;;25.70;72.20;;;;;;5049588;28;20021;-70
2022/02/08 07:50:41;;;;;;;8.18;3.85;;;25.70;71.20;;;;;;5044259;28;19908;-70
2022/02/08 07:53:47;;;;;;;13.57;3.30;;;25.80;70.50;;;;;;5049764;28;20059;-70
2022/02/08 07:56:33;;;;;;;;;;;25.70;69.70;;;;;;5049558;28;20021;-71
2022/02/08 07:59:19;;;;;;;;;;;25.80;69.60;;;;;;5043253;28;20317;-70
2022/02/08 08:02:25;;;;;;;8.90;2.92;;;25.80;69.60;;;;;;5046961;28;19905;-69
2022/02/08 08:05:11;;;;;;;;;;;25.80;69.40;;;;;;5047074;28;20626;-70
2022/02/08 08:08:17;;;;;;;6.78;3.47;;;25.80;69.10;;;;;;5062335;28;19936;-70
2022/02/08 08:11:23;;;;;;;7.78;3.25;;;25.80;69.10;;;;;;5047704;28;20044;-70
2022/02/08 08:14:32;;;;;;;9.18;3.50;;;25.90;68.90;;;;;;5043103;28;20514;-70
2022/02/08 08:21:02;;;;;;;10.13;3.83;;;25.90;68.90;;;;;;5046858;28;20094;-70
2022/02/08 08:24:13;;;;;;;13.20;3.40;;;26.00;68.90;;;;;;5049520;28;20105;-70
2022/02/08 08:27:20;;;;;;;9.73;3.92;;;26.00;68.70;;;;;;5049225;28;20476;-69
2022/02/08 08:30:26;;;;;;;9.77;4.30;;;26.10;68.60;;;;;;5047164;28;20017;-70
2022/02/08 08:33:32;;;;;;;21.50;4.28;;;26.20;68.70;;;;;;5047759;28;20112;-69
2022/02/08 08:36:38;;;;;;;10.40;3.55;;;26.20;68.20;;;;;;5044491;28;20492;-69
2022/02/08 08:39:48;;;;;;;7.32;3.80;;;26.30;68.20;;;;;;5049322;28;20562;-69
2022/02/08 08:52:53;;;;;;;8.30;3.15;;;26.60;67.50;;;;;;5029884;28;20113;-69
2022/02/08 08:56:00;;;;;;;8.98;3.30;;;26.60;67.20;;;;;;5045215;28;20608;-70
2022/02/08 08:59:06;;;;;;;8.60;4.30;;;26.70;67.00;;;;;;5045220;28;20488;-70
2022/02/08 09:02:12;;;;;;;12.43;3.70;;;26.80;66.80;;;;;;5048856;28;20480;-70
2022/02/08 09:05:20;;;;;;;10.27;3.80;;;26.90;66.40;;;;;;5049048;28;20104;-69
2022/02/08 09:08:30;;;;;;;7.78;3.03;;;27.00;66.10;;;;;;5047657;28;20067;-69
2022/02/08 09:28:21;;;;;;;24.17;4.65;;;27.50;64.30;;;;;;5052533;28;20175;-70
2022/02/08 09:31:27;;;;;;;11.57;5.13;;;27.50;63.70;;;;;;5052622;28;20033;-70
2022/02/08 09:34:33;;;;;;;9.98;4.13;;;27.60;63.30;;;;;;5047828;28;20503;-69
2022/02/08 09:37:39;;;;;;;8.55;3.33;;;27.50;62.70;;;;;;5051151;28;20024;-70
2022/02/08 09:40:46;;;;;;;7.78;3.58;;;27.40;62.50;;;;;;5050130;28;20551;-69
2022/02/08 09:43:52;;;;;;;4.60;2.97;;;27.40;62.50;;;;;;5047539;28;20151;-70
2022/02/08 09:46:58;;;;;;;4.03;2.28;;;27.30;62.50;;;;;;5051650;28;20025;-69
2022/02/08 09:50:13;;;;;;;6.43;3.53;;;27.30;62.70;;;;;;5050972;28;20381;-70
2022/02/08 09:53:29;;;;;;;7.83;2.53;;;27.30;62.70;;;;;;5049624;28;20041;-69
2022/02/08 09:56:35;;;;;;;7.60;3.72;;;27.30;62.80;;;;;;5048160;28;20318;-70
2022/02/08 09:59:41;;;;;;;5.88;2.58;;;27.40;62.80;;;;;;5042139;28;20025;-70
2022/02/08 10:02:47;;;;;;;5.63;3.55;;;27.40;62.60;;;;;;5051902;28;20028;-70
2022/02/08 10:05:42;;;;;;;6.18;3.22;;;27.50;62.60;;;;;;5051120;28;20021;-70
2022/02/08 10:08:48;;;;;;;8.55;3.63;;;27.60;62.30;;;;;;5047884;28;20028;-69
2022/02/08 10:11:56;;;;;;;9.90;3.45;;;27.60;62.10;;;;;;5050879;28;20053;-70
2022/02/08 10:21:51;;;;;;;9.95;3.08;;;27.90;61.70;;;;;;5047994;28;20105;-70
2022/02/08 10:24:57;;;;;;;9.70;3.33;;;28.00;61.40;;;;;;5049318;28;20029;-70
2022/02/08 10:27:30;;;;;;;7.40;4.25;;;28.20;61.30;;;;;;5049831;28;20029;-70
2022/02/08 10:38:20;;;;;;;;;;;28.50;60.40;;;;;;5049361;28;20060;-69
2022/02/08 10:40:47;;;;;;;12.52;4.25;;;28.70;59.80;;;;;;5050234;28;20000;-69
2022/02/08 10:43:19;;;;;;;19.98;5.97;;;28.70;59.80;;;;;;5050383;28;20032;-69
2022/02/08 10:45:46;;;;;;;27.30;4.07;;;28.90;58.90;;;;;;5052132;28;20454;-69
2022/02/08 10:48:22;;;;;;;10.73;3.60;;;29.00;58.20;;;;;;5050826;28;20079;-68
2022/02/08 10:50:56;;;;;;;25.50;4.18;;;29.10;57.10;;;;;;5050718;28;20508;-69
2022/02/08 10:53:25;;;;;;;14.57;3.37;;;29.20;57.20;;;;;;5049777;28;20124;-69
2022/02/08 10:56:05;;;;;;;10.93;3.70;;;29.30;57.40;;;;;;5046976;28;20254;-69
2022/02/08 11:06:26;;;;;;;6.88;3.35;;;29.60;56.10;;;;;;5049835;28;20027;-69
2022/02/08 11:12:20;;;;;;;5.57;1.98;;;29.50;56.50;;;;;;5049018;28;20056;-70
2022/02/08 11:14:46;;;;;;;6.18;2.30;;;29.30;56.70;;;;;;5046350;28;20034;-70
2022/02/08 11:25:09;;;;;;;8.63;3.83;;;29.20;57.80;;;;;;5046155;28;20028;-70
2022/02/08 11:27:47;;;;;;;5.55;2.53;;;29.20;57.90;;;;;;5051025;28;20152;-70
2022/02/08 11:30:21;;;;;;;9.15;4.10;;;29.20;57.80;;;;;;5049550;28;20029;-69
2022/02/08 12:00:35;;;;;;;9.00;3.00;;;30.30;55.80;;;;;;5045981;28;20112;-69
2022/02/08 12:07:17;;;;;;;14.13;3.95;;;30.50;55.20;;;;;;5047719;28;20044;-69
2022/02/08 12:10:40;;;;;;;5.82;2.38;;;30.50;54.60;;;;;;5048928;28;20121;-69
2022/02/08 12:54:11;;;;;;;9.82;3.17;;;31.00;54.20;;;;;;5046928;28;20171;-70
2022/02/08 12:57:21;;;;;;;9.85;3.47;;;31.00;54.00;;;;;;5046373;28;20041;-70
2022/02/08 13:00:52;;;;;;;11.45;3.17;;;31.00;54.00;;;;;;5050430;28;20823;-70
2022/02/08 13:04:05;;;;;;;10.23;2.58;;;31.00;54.10;;;;;;5052660;28;20425;-70
2022/02/08 14:29:18;;;;;;;13.73;3.53;;;31.40;53.80;;;;;;5049022;28;20499;-71
2022/02/08 14:36:32;;;;;;;11.02;2.60;;;31.40;53.60;;;;;;5035148;28;20049;-70
2022/02/08 15:08:58;;;;;;;26.48;6.80;;;30.80;56.60;;;;;;5049318;28;20082;-70
2022/02/08 15:11:33;;;;;;;23.42;5.80;;;30.80;56.50;;;;;;5049289;28;20496;-69
2022/02/08 15:14:01;;;;;;;14.57;4.68;;;30.80;57.60;;;;;;5050748;28;20025;-68
2022/02/08 15:16:30;;;;;;;12.88;3.92;;;30.80;57.30;;;;;;5049911;28;20029;-69
2022/02/08 15:18:56;;;;;;;12.95;4.15;;;30.80;56.90;;;;;;5050347;28;20024;-69
2022/02/08 15:21:29;;;;;;;60.38;10.23;;;30.70;56.40;;;;;;5050531;28;20508;-70
2022/02/08 15:23:55;;;;;;;34.17;10.85;;;30.80;57.30;;;;;;5047869;28;20104;-71
2022/02/08 15:26:23;;;;;;;30.30;6.38;;;30.80;57.20;;;;;;5048703;28;20432;-71
2022/02/08 15:28:50;;;;;;;20.83;4.07;;;30.70;57.20;;;;;;5049313;28;20100;-69
2022/02/08 15:31:18;;;;;;;51.70;7.45;;;30.70;57.20;;;;;;5050389;28;20037;-68
2022/02/08 15:33:45;;;;;;;35.70;5.35;;;30.70;57.10;;;;;;5050293;28;20488;-69
2022/02/08 15:36:15;;;;;;;56.90;7.65;;;30.70;57.00;;;;;;5050277;28;20611;-70
2022/02/08 15:38:51;;;;;;;40.63;5.25;;;30.70;56.70;;;;;;5050369;28;20353;-69
2022/02/08 15:41:18;;;;;;;140.57;12.18;;;30.70;56.10;;;;;;5046528;28;20017;-69
2022/02/08 15:43:45;;;;;;;66.30;6.28;;;30.70;57.40;;;;;;5049755;28;20024;-69
2022/02/08 15:46:32;;;;;;;33.03;5.13;;;30.70;57.30;;;;;;5048253;28;20045;-69
2022/02/08 15:49:00;;;;;;;24.77;4.30;;;30.70;56.50;;;;;;5050251;28;20033;-69
2022/02/08 15:51:43;;;;;;;15.13;3.70;;;30.70;55.90;;;;;;5046862;28;20492;-69
2022/02/08 15:54:22;;;;;;;22.00;8.98;;;30.70;56.20;;;;;;5047126;28;20013;-70
2022/02/08 16:07:59;;;;;;;8.77;2.65;;;30.40;55.40;;;;;;5048755;28;20078;-69
2022/02/08 16:10:32;;;;;;;4.90;1.90;;;30.40;55.40;;;;;;5049447;28;20020;-69
2022/02/08 16:15:53;;;;;;;5.40;1.70;;;30.30;55.30;;;;;;5049492;28;20029;-70
2022/02/08 16:18:30;;;;;;;5.32;1.42;;;30.30;55.30;;;;;;5046586;28;20020;-69
2022/02/08 16:23:37;;;;;;;10.43;4.05;;;30.20;55.50;;;;;;5035962;28;20033;-69
2022/02/08 16:53:11;;;;;;;6.35;2.25;;;29.70;56.60;;;;;;5047110;28;20040;-69
2022/02/08 17:00:34;;;;;;;9.30;2.42;;;29.60;57.10;;;;;;5046596;28;20020;-68
2022/02/08 17:03:05;;;;;;;13.38;3.05;;;29.50;57.00;;;;;;5047779;28;20053;-67
2022/02/08 17:05:32;;;;;;;50.00;5.93;;;29.40;57.00;;;;;;5047294;28;20475;-68
2022/02/08 17:07:59;;;;;;;50.35;7.55;;;29.40;57.40;;;;;;5034721;28;20033;-68
2022/02/08 17:13:04;;;;;;;27.20;8.45;;;29.40;57.30;;;;;;5046481;28;20395;-68
2022/02/08 17:48:11;;;;;;;15.13;2.50;;;28.90;58.00;;;;;;5044693;28;20043;-69
2022/02/08 17:50:37;;;;;;;12.75;3.05;;;28.80;58.10;;;;;;5048541;28;20035;-69
2022/02/08 17:53:04;;;;;;;10.52;3.80;;;28.80;58.30;;;;;;5051277;28;20044;-69
2022/02/08 17:55:31;;;;;;;12.25;6.45;;;28.70;58.40;;;;;;5047682;28;20136;-69
2022/02/08 17:58:00;;;;;;;15.57;9.70;;;28.70;58.50;;;;;;5051325;28;20025;-70
2022/02/08 18:00:30;;;;;;;15.50;5.68;;;28.70;58.50;;;;;;5045101;28;20392;-71
2022/02/08 18:02:56;;;;;;;11.38;3.45;;;28.60;58.60;;;;;;5050596;28;20106;-72
2022/02/08 18:05:25;;;;;;;4.68;3.00;;;28.60;58.80;;;;;;5047945;28;20021;-70
2022/02/08 18:07:52;;;;;;;9.70;2.30;;;28.50;58.80;;;;;;5047592;28;20487;-69
2022/02/08 18:10:22;;;;;;;6.07;2.35;;;28.50;59.00;;;;;;5045283;28;20536;-70
2022/02/08 18:12:51;;;;;;;8.38;2.50;;;28.40;59.10;;;;;;5046910;28;20067;-70
2022/02/08 18:15:18;;;;;;;4.93;1.90;;;28.40;59.20;;;;;;5049265;28;20024;-70
2022/02/08 18:17:55;;;;;;;7.18;2.33;;;28.40;59.40;;;;;;5047539;28;20036;-71
2022/02/08 18:20:29;;;;;;;7.00;2.38;;;28.30;59.50;;;;;;5047749;28;20064;-74
2022/02/08 19:09:43;;;;;;;4.22;1.80;;;27.80;59.60;;;;;;5048984;28;20036;-71
2022/02/08 19:12:20;;;;;;;10.82;3.40;;;27.70;59.60;;;;;;5048677;28;20049;-71
2022/02/08 19:17:54;;;;;;;5.55;2.00;;;27.70;59.60;;;;;;5047580;28;19986;-70
2022/02/08 19:20:27;;;;;;;5.63;2.60;;;27.70;59.60;;;;;;5048804;28;20048;-71
2022/02/08 19:22:53;;;;;;;9.13;3.10;;;27.70;59.60;;;;;;5047213;28;20020;-71
2022/02/08 19:25:20;;;;;;;6.22;2.30;;;27.60;59.60;;;;;;5049878;28;20025;-70
2022/02/08 19:27:49;;;;;;;5.85;2.55;;;27.60;59.60;;;;;;5047671;28;20431;-71
2022/02/08 19:30:15;;;;;;;6.25;3.08;;;27.60;59.70;;;;;;5047771;28;20047;-70
2022/02/08 19:32:42;;;;;;;6.00;2.80;;;27.50;59.70;;;;;;5049503;28;20033;-70
2022/02/08 19:35:11;;;;;;;14.60;4.25;;;27.50;59.70;;;;;;5046687;28;20027;-70
2022/02/08 19:37:38;;;;;;;17.23;10.60;;;27.50;59.80;;;;;;5047626;28;20075;-69
2022/02/08 19:40:07;;;;;;;11.18;9.82;;;27.40;59.80;;;;;;5046698;28;20028;-69
2022/02/08 19:42:35;;;;;;;10.27;5.85;;;27.40;60.00;;;;;;5046372;28;20473;-71
2022/02/08 19:45:13;;;;;;;10.00;4.05;;;27.40;60.00;;;;;;5047372;28;20640;-70
2022/02/08 19:47:40;;;;;;;8.25;2.00;;;27.40;60.10;;;;;;5044816;28;20109;-70
2022/02/08 19:50:07;;;;;;;11.27;2.13;;;27.30;60.10;;;;;;5048397;28;20020;-71
2022/02/08 19:52:35;;;;;;;8.98;2.17;;;27.30;60.20;;;;;;5047158;28;20423;-70
2022/02/08 19:55:29;;;;;;;8.38;2.17;;;27.30;60.40;;;;;;5049246;28;20036;-71
2022/02/08 19:57:57;;;;;;;6.70;1.98;;;27.30;60.50;;;;;;5047340;28;20108;-70
2022/02/08 20:00:29;;;;;;;3.80;2.38;;;27.30;60.60;;;;;;5048750;28;20024;-71
2022/02/08 20:02:59;;;;;;;7.80;2.55;;;27.20;60.50;;;;;;5049261;28;20486;-71
2022/02/08 20:05:31;;;;;;;5.55;2.00;;;27.20;60.60;;;;;;5046050;28;20017;-70
2022/02/08 20:07:59;;;;;;;3.65;1.77;;;27.20;60.70;;;;;;5050312;28;20117;-71
2022/02/08 20:10:29;;;;;;;6.07;1.67;;;27.20;60.70;;;;;;5046404;28;20056;-71
2022/02/08 20:12:56;;;;;;;7.80;2.63;;;27.10;60.60;;;;;;5048202;28;20106;-69
2022/02/08 20:15:24;;;;;;;14.25;10.35;;;27.10;60.70;;;;;;5046626;28;20475;-70
2022/02/08 20:17:52;;;;;;;15.93;14.00;;;27.10;60.80;;;;;;5047548;28;20021;-69
2022/02/08 20:20:20;;;;;;;18.38;16.50;;;27.10;60.70;;;;;;5048336;28;20052;-70
2022/02/08 20:22:51;;;;;;;22.88;18.55;;;27.10;60.80;;;;;;5048017;28;20381;-70
2022/02/08 20:25:21;;;;;;;13.13;11.60;;;27.00;60.80;;;;;;5048596;28;20032;-70
2022/02/08 20:27:49;;;;;;;12.40;7.28;;;27.00;60.80;;;;;;5048167;28;20056;-70
2022/02/08 20:30:22;;;;;;;7.25;4.10;;;27.00;60.80;;;;;;5048315;28;20469;-72
2022/02/08 20:32:52;;;;;;;12.05;3.13;;;27.00;60.90;;;;;;5047061;28;20033;-70
2022/02/08 20:35:19;;;;;;;4.68;2.20;;;27.00;61.00;;;;;;5047487;28;20021;-71
2022/02/08 20:37:47;;;;;;;10.98;2.00;;;26.90;60.90;;;;;;5049211;28;20048;-71
2022/02/08 20:40:15;;;;;;;10.07;2.72;;;26.90;60.90;;;;;;5047611;28;20017;-71
2022/02/08 20:42:42;;;;;;;8.65;2.33;;;26.90;60.90;;;;;;5048304;28;20025;-70
2022/02/08 20:45:10;;;;;;;12.00;2.75;;;26.80;60.90;;;;;;5047192;28;20090;-70
2022/02/08 20:47:40;;;;;;;13.95;2.13;;;26.80;61.10;;;;;;5048699;28;20512;-69
2022/02/08 20:50:16;;;;;;;9.77;1.90;;;26.80;61.20;;;;;;5048746;28;20427;-70
2022/02/08 20:52:51;;;;;;;7.15;2.10;;;26.80;61.60;;;;;;5045597;28;20544;-70
2022/02/08 20:55:20;;;;;;;8.38;2.47;;;26.80;61.50;;;;;;5048114;28;20029;-71
2022/02/08 20:57:52;;;;;;;7.00;2.72;;;26.80;61.60;;;;;;5048021;28;20464;-71
2022/02/08 21:00:20;;;;;;;7.22;2.45;;;26.80;61.70;;;;;;5045506;28;20029;-70
2022/02/08 21:02:57;;;;;;;13.95;3.40;;;26.70;61.60;;;;;;5046303;28;20017;-69
2022/02/08 21:07:54;;;;;;;11.43;4.18;;;26.70;61.70;;;;;;5048383;28;20481;-70
2022/02/08 21:10:23;;;;;;;7.68;3.50;;;26.70;61.60;;;;;;5043992;28;20017;-70
2022/02/08 21:13:14;;;;;;;7.40;3.70;;;26.70;61.50;;;;;;5048677;28;20039;-70
2022/02/08 21:15:37;;;;;;;5.45;3.13;;;26.60;61.40;;;;;;5045540;28;20033;-70
2022/02/08 21:18:03;;;;;;;8.68;3.65;;;26.60;61.40;;;;;;5047706;28;20025;-69
2022/02/08 21:20:30;;;;;;;13.90;4.57;;;26.60;61.30;;;;;;5048062;28;20411;-69
2022/02/08 21:22:57;;;;;;;22.98;6.10;;;26.60;61.40;;;;;;5050910;28;20017;-70
2022/02/08 21:25:23;;;;;;;7.85;3.25;;;26.50;61.60;;;;;;5048566;28;20024;-70
2022/02/08 21:27:57;;;;;;;6.05;2.75;;;26.50;61.60;;;;;;5050148;28;20491;-71
2022/02/08 21:43:19;;;;;;;6.13;2.88;;;26.40;61.60;;;;;;5045874;28;20033;-71
2022/02/08 21:47:24;;;;;;;10.48;3.25;;;26.40;61.70;;;;;;5049593;28;20037;-69
2022/02/08 21:54:21;;;;;;;6.88;2.08;;;26.40;61.80;;;;;;5049550;28;20040;-70
2022/02/08 21:56:48;;;;;;;4.70;1.75;;;26.40;61.80;;;;;;5050343;28;20025;-71
2022/02/08 21:59:14;;;;;;;5.32;1.83;;;26.30;61.80;;;;;;5050020;28;20071;-69
2022/02/08 22:01:41;;;;;;;6.63;2.13;;;26.30;61.90;;;;;;5047816;28;20033;-70
2022/02/08 22:04:08;;;;;;;9.88;1.98;;;26.30;62.00;;;;;;5050569;28;20040;-70
2022/02/08 22:06:38;;;;;;;7.35;1.77;;;26.30;62.00;;;;;;5050723;28;20476;-70
2022/02/08 22:09:09;;;;;;;10.68;2.38;;;26.30;62.00;;;;;;5051930;28;20021;-70
2022/02/08 22:22:28;;;;;;;4.15;2.75;;;26.20;62.00;;;;;;5050195;28;20178;-70
2022/02/08 22:25:36;;;;;;;7.35;3.28;;;26.20;61.90;;;;;;5050985;28;20048;-70
2022/02/08 22:27:48;;;;;;;7.22;3.75;;;26.20;61.90;;;;;;5047249;28;20139;-70
2022/02/08 22:30:40;;;;;;;6.85;3.70;;;26.10;61.80;;;;;;5051169;28;20025;-70